createdAt,value
2018-09-20T00:00:16.577Z,1011.27
2018-09-20T00:05:12.943Z,1011.23
2018-09-20T00:10:09.110Z,1011.22
2018-09-20T00:15:05.256Z,1011.16
2018-09-20T00:20:01.448Z,1011.20
2018-09-20T00:24:58.269Z,1011.10
2018-09-20T00:29:53.760Z,1011.12
2018-09-20T00:34:50.542Z,1011.03
2018-09-20T00:39:46.229Z,1010.96
2018-09-20T00:44:42.142Z,1010.89
2018-09-20T00:49:37.990Z,1010.76
2018-09-20T00:54:33.894Z,1010.81
2018-09-20T00:59:31.174Z,1010.83
2018-09-20T01:04:26.735Z,1010.89
2018-09-20T01:09:22.560Z,1010.83
2018-09-20T01:14:18.695Z,1010.94
2018-09-20T01:19:15.458Z,1010.84
2018-09-20T01:24:11.565Z,1010.84
2018-09-20T01:29:08.553Z,1010.77
2018-09-20T01:34:03.934Z,1010.84
2018-09-20T01:39:00.094Z,1010.85
2018-09-20T01:43:56.076Z,1010.87
2018-09-20T01:48:51.941Z,1010.85
2018-09-20T01:53:48.662Z,1010.90
2018-09-20T01:58:44.328Z,1010.79
2018-09-20T02:03:40.398Z,1010.90
2018-09-20T02:08:35.956Z,1010.89
2018-09-20T02:13:32.973Z,1010.95
2018-09-20T02:18:28.934Z,1010.94
2018-09-20T02:23:26.011Z,1010.89
2018-09-20T02:28:21.427Z,1010.93
2018-09-20T02:33:18.838Z,1010.97
2018-09-20T02:38:14.547Z,1011.02
2018-09-20T02:43:10.271Z,1011.03
2018-09-20T02:48:06.281Z,1010.89
2018-09-20T02:53:02.865Z,1010.96
2018-09-20T02:57:58.283Z,1010.87
2018-09-20T03:02:54.497Z,1010.85
2018-09-20T03:07:50.311Z,1010.72
2018-09-20T03:12:47.705Z,1010.81
2018-09-20T03:17:43.422Z,1010.81
2018-09-20T03:22:39.286Z,1010.85
2018-09-20T03:27:36.099Z,1010.86
2018-09-20T03:32:31.834Z,1010.81
2018-09-20T03:37:28.617Z,1010.79
2018-09-20T03:42:24.292Z,1010.85
2018-09-20T03:52:23.317Z,1010.82
2018-09-20T03:57:18.861Z,1010.93
2018-09-20T04:02:15.044Z,1010.88
2018-09-20T04:07:11.250Z,1010.94
2018-09-20T04:12:08.193Z,1010.95
2018-09-20T04:17:03.822Z,1010.92
2018-09-20T04:22:00.126Z,1010.90
2018-09-20T04:26:55.883Z,1010.91
2018-09-20T04:31:51.736Z,1010.79
2018-09-20T04:36:48.687Z,1010.78
2018-09-20T04:41:44.161Z,1010.89
2018-09-20T04:46:40.049Z,1010.96
2018-09-20T04:51:36.007Z,1010.93
2018-09-20T04:56:32.135Z,1010.94
2018-09-20T05:01:27.856Z,1010.89
2018-09-20T05:06:23.548Z,1010.92
2018-09-20T05:11:19.399Z,1010.86
2018-09-20T05:16:15.369Z,1010.86
2018-09-20T05:21:12.431Z,1010.87
2018-09-20T05:26:07.865Z,1010.88
2018-09-20T05:31:03.859Z,1010.85
2018-09-20T05:35:59.818Z,1010.80
2018-09-20T05:40:55.896Z,1010.84
2018-09-20T05:45:52.791Z,1010.83
2018-09-20T05:50:48.596Z,1010.95
2018-09-20T05:55:44.388Z,1010.85
2018-09-20T06:00:40.365Z,1010.90
2018-09-20T06:05:36.571Z,1010.80
2018-09-20T06:10:32.576Z,1010.77
2018-09-20T06:15:28.444Z,1010.84
2018-09-20T06:20:24.494Z,1010.87
2018-09-20T06:25:20.483Z,1010.84
2018-09-20T06:30:16.585Z,1010.84
2018-09-20T06:35:12.586Z,1010.83
2018-09-20T06:40:08.641Z,1010.81
2018-09-20T06:45:04.955Z,1010.92
2018-09-20T06:50:01.025Z,1010.92
2018-09-20T06:54:56.959Z,1010.85
2018-09-20T06:59:53.013Z,1010.88
2018-09-20T07:04:49.075Z,1010.81
2018-09-20T07:09:45.389Z,1010.84
2018-09-20T07:14:42.469Z,1010.84
2018-09-20T07:19:38.406Z,1010.76
2018-09-20T07:24:34.160Z,1010.85
2018-09-20T07:29:30.152Z,1010.76
2018-09-20T07:34:26.521Z,1010.79
2018-09-20T07:39:22.599Z,1010.70
2018-09-20T07:44:18.920Z,1010.73
2018-09-20T07:49:15.230Z,1010.65
2018-09-20T07:54:13.041Z,1010.71
2018-09-20T07:59:09.111Z,1010.70
2018-09-20T08:04:05.281Z,1010.73
2018-09-20T08:09:01.380Z,1010.75
2018-09-20T08:13:57.608Z,1010.80
2018-09-20T08:18:53.906Z,1010.81
2018-09-20T08:23:49.968Z,1010.84
2018-09-20T08:28:46.073Z,1010.81
2018-09-20T08:33:42.263Z,1010.90
2018-09-20T08:38:38.491Z,1010.89
2018-09-20T08:43:34.527Z,1010.76
2018-09-20T08:48:30.555Z,1010.80
2018-09-20T08:53:26.558Z,1010.71
2018-09-20T08:58:22.543Z,1010.73
2018-09-20T09:03:19.484Z,1010.72
2018-09-20T09:08:15.185Z,1010.71
2018-09-20T09:18:10.939Z,1010.60
2018-09-20T09:23:08.146Z,1010.38
2018-09-20T09:28:04.974Z,1010.32
2018-09-20T09:33:01.635Z,1010.33
2018-09-20T09:37:57.922Z,1010.35
2018-09-20T09:42:54.334Z,1010.38
2018-09-20T09:47:50.387Z,1010.27
2018-09-20T09:52:47.573Z,1010.24
2018-09-20T09:57:43.747Z,1010.20
2018-09-20T10:02:40.421Z,1010.09
2018-09-20T10:07:36.797Z,1010.10
2018-09-20T10:12:34.240Z,1009.92
2018-09-20T10:17:30.103Z,1010.07
2018-09-20T10:22:26.285Z,1009.98
2018-09-20T10:27:23.497Z,1009.85
2018-09-20T10:32:19.485Z,1009.86
2018-09-20T10:37:15.705Z,1009.83
2018-09-20T10:42:11.981Z,1009.82
2018-09-20T10:47:08.066Z,1009.71
2018-09-20T10:52:05.085Z,1009.68
2018-09-20T10:57:02.046Z,1009.68
2018-09-20T11:01:58.140Z,1009.58
2018-09-20T11:06:54.353Z,1009.65
2018-09-20T11:11:51.650Z,1009.60
2018-09-20T11:16:47.996Z,1009.72
2018-09-20T11:21:44.147Z,1009.59
2018-09-20T11:26:41.128Z,1009.57
2018-09-20T11:31:37.219Z,1009.51
2018-09-20T11:36:34.179Z,1009.57
2018-09-20T11:41:31.158Z,1009.74
2018-09-20T11:46:27.372Z,1009.73
2018-09-20T11:51:23.806Z,1009.63
2018-09-20T11:56:20.365Z,1009.59
2018-09-20T12:01:17.437Z,1009.57
2018-09-20T12:06:14.915Z,1009.60
2018-09-20T12:11:10.204Z,1009.46
2018-09-20T12:16:06.381Z,1009.40
2018-09-20T12:21:01.665Z,1009.38
2018-09-20T12:25:57.128Z,1009.30
2018-09-20T12:30:52.530Z,1009.30
2018-09-20T12:35:49.140Z,1009.21
2018-09-20T12:40:45.800Z,1009.02
2018-09-20T12:45:42.633Z,1008.98
2018-09-20T12:50:38.281Z,1008.90
2018-09-20T12:55:34.287Z,1008.80
2018-09-20T13:00:30.462Z,1008.84
2018-09-20T13:05:26.697Z,1008.77
2018-09-20T13:10:22.832Z,1008.69
2018-09-20T13:15:18.698Z,1008.64
2018-09-20T13:20:14.580Z,1008.50
2018-09-20T13:25:12.323Z,1008.56
2018-09-20T13:30:08.116Z,1008.65
2018-09-20T13:35:04.603Z,1008.54
2018-09-20T13:40:01.830Z,1008.59
2018-09-20T13:44:57.876Z,1008.54
2018-09-20T13:49:55.598Z,1008.48
2018-09-20T13:54:51.592Z,1008.28
2018-09-20T13:59:47.676Z,1008.36
2018-09-20T14:04:43.566Z,1008.25
2018-09-20T14:09:40.577Z,1008.20
2018-09-20T14:14:36.186Z,1008.07
2018-09-20T14:19:32.045Z,1008.16
2018-09-20T14:24:27.804Z,1008.02
2018-09-20T14:29:23.739Z,1008.08
2018-09-20T14:34:20.867Z,1008.04
2018-09-20T14:39:16.890Z,1007.95
2018-09-20T14:44:12.795Z,1007.84
2018-09-20T14:49:09.734Z,1007.74
2018-09-20T14:54:06.499Z,1007.82
2018-09-20T14:59:02.361Z,1007.72
2018-09-20T15:03:58.624Z,1007.61
2018-09-20T15:08:54.878Z,1007.62
2018-09-20T15:13:51.784Z,1007.46
2018-09-20T15:18:47.408Z,1007.31
2018-09-20T15:23:43.249Z,1007.36
2018-09-20T15:28:39.552Z,1007.29
2018-09-20T15:33:35.509Z,1007.27
2018-09-20T15:38:31.675Z,1007.17
2018-09-20T15:43:27.912Z,1007.10
2018-09-20T15:48:23.909Z,1007.10
2018-09-20T15:53:20.247Z,1007.01
2018-09-20T15:58:17.314Z,1006.95
2018-09-20T16:03:13.049Z,1006.99
2018-09-20T16:08:09.083Z,1006.91
2018-09-20T16:13:06.147Z,1006.86
2018-09-20T16:18:01.895Z,1006.83
2018-09-20T16:22:58.346Z,1006.74
2018-09-20T16:27:54.284Z,1006.74
2018-09-20T16:32:50.558Z,1006.47
2018-09-20T16:37:47.147Z,1006.43
2018-09-20T16:42:42.992Z,1006.44
2018-09-20T16:47:38.825Z,1006.31
2018-09-20T16:52:34.616Z,1006.30
2018-09-20T16:57:30.431Z,1006.20
2018-09-20T17:02:26.309Z,1006.18
2018-09-20T17:07:23.383Z,1006.14
2018-09-20T17:12:18.932Z,1006.20
2018-09-20T17:17:16.116Z,1006.02
2018-09-20T17:22:11.777Z,1006.06
2018-09-20T17:27:07.622Z,1005.93
2018-09-20T17:32:04.717Z,1005.80
2018-09-20T17:37:01.735Z,1005.75
2018-09-20T17:41:57.253Z,1005.74
2018-09-20T17:46:53.210Z,1005.76
2018-09-20T17:51:50.329Z,1005.75
2018-09-20T17:56:46.357Z,1005.72
2018-09-20T18:01:42.079Z,1005.67
2018-09-20T18:06:38.093Z,1005.60
2018-09-20T18:11:34.032Z,1005.59
2018-09-20T18:16:32.225Z,1005.63
2018-09-20T18:21:27.362Z,1005.56
2018-09-20T18:26:23.193Z,1005.60
2018-09-20T18:31:18.804Z,1005.55
2018-09-20T18:36:15.171Z,1005.52
2018-09-20T18:41:11.154Z,1005.47
2018-09-20T18:46:07.117Z,1005.44
2018-09-20T18:51:04.875Z,1005.45
2018-09-20T18:56:00.955Z,1005.44
2018-09-20T19:00:56.797Z,1005.36
2018-09-20T19:05:53.074Z,1005.32
2018-09-20T19:10:49.164Z,1005.28
2018-09-20T19:15:46.121Z,1005.36
2018-09-20T19:20:41.633Z,1005.28
2018-09-20T19:25:37.558Z,1005.22
2018-09-20T19:30:34.426Z,1005.19
2018-09-20T19:35:29.753Z,1005.16
2018-09-20T19:40:26.109Z,1005.20
2018-09-20T19:45:23.289Z,1005.08
2018-09-20T19:50:18.782Z,1004.95
2018-09-20T19:55:14.586Z,1004.98
2018-09-20T20:00:11.408Z,1004.95
2018-09-20T20:05:07.319Z,1004.90
2018-09-20T20:10:03.216Z,1004.81
2018-09-20T20:15:00.099Z,1004.75
2018-09-20T20:24:57.137Z,1004.67
2018-09-20T20:29:53.626Z,1004.61
2018-09-20T20:34:49.543Z,1004.54
2018-09-20T20:39:45.388Z,1004.43
2018-09-20T20:44:41.212Z,1004.51
2018-09-20T20:49:37.996Z,1004.41
2018-09-20T20:54:33.663Z,1004.40
2018-09-20T20:59:30.499Z,1004.33
2018-09-20T21:04:26.975Z,1004.31
2018-09-20T21:09:23.769Z,1004.21
2018-09-20T21:14:19.298Z,1004.20
2018-09-20T21:19:15.143Z,1004.10
2018-09-20T21:24:11.154Z,1004.04
2018-09-20T21:29:07.053Z,1004.03
2018-09-20T21:34:02.956Z,1003.99
2018-09-20T21:39:00.047Z,1003.86
2018-09-20T21:48:58.878Z,1003.66
2018-09-20T21:53:55.028Z,1003.56
2018-09-20T21:58:50.906Z,1003.51
2018-09-20T22:03:46.947Z,1003.44
2018-09-20T22:08:42.560Z,1003.31
2018-09-20T22:13:40.129Z,1003.29
2018-09-20T22:18:35.636Z,1003.21
2018-09-20T22:23:32.537Z,1003.10
2018-09-20T22:28:29.759Z,1003.03
2018-09-20T22:33:25.373Z,1002.96
2018-09-20T22:38:21.399Z,1002.85
2018-09-20T22:43:18.327Z,1002.74
2018-09-20T22:48:15.452Z,1002.59
2018-09-20T22:53:11.027Z,1002.55
2018-09-20T22:58:07.202Z,1002.57
2018-09-20T23:03:03.168Z,1002.56
2018-09-20T23:07:59.075Z,1002.46
2018-09-20T23:12:56.231Z,1002.50
2018-09-20T23:17:51.818Z,1002.42
2018-09-20T23:22:49.142Z,1002.36
2018-09-20T23:27:44.792Z,1002.27
2018-09-20T23:32:40.640Z,1002.19
2018-09-20T23:37:37.446Z,1002.14
2018-09-20T23:42:32.994Z,1002.16
2018-09-20T23:47:28.896Z,1002.11
2018-09-20T23:52:24.973Z,1002.00
2018-09-20T23:57:20.630Z,1002.00
